sensor_id;sensor_type;location;lat;lon;timestamp;temperature;humidity
54684;DHT22;40582;53.100;6.686;2023-02-21T00:01:47;9.40;99.90
54684;DHT22;40582;53.100;6.686;2023-02-21T00:04:32;9.40;99.90
54684;DHT22;40582;53.100;6.686;2023-02-21T00:07:17;9.40;99.90
54684;DHT22;40582;53.100;6.686;2023-02-21T00:10:01;9.40;99.90
54684;DHT22;40582;53.100;6.686;2023-02-21T00:12:46;9.40;99.90
54684;DHT22;40582;53.100;6.686;2023-02-21T00:15:31;9.40;99.90
54684;DHT22;40582;53.100;6.686;2023-02-21T00:18:15;9.40;99.90
54684;DHT22;40582;53.100;6.686;2023-02-21T00:20:59;9.40;99.90
54684;DHT22;40582;53.100;6.686;2023-02-21T00:23:44;9.40;99.90
54684;DHT22;40582;53.100;6.686;2023-02-21T00:26:28;9.40;99.90
54684;DHT22;40582;53.100;6.686;2023-02-21T00:29:12;9.40;99.90
54684;DHT22;40582;53.100;6.686;2023-02-21T00:31:56;9.40;99.90
54684;DHT22;40582;53.100;6.686;2023-02-21T00:34:41;9.40;99.90
54684;DHT22;40582;53.100;6.686;2023-02-21T00:37:25;9.50;99.90
54684;DHT22;40582;53.100;6.686;2023-02-21T00:40:14;9.40;99.90
54684;DHT22;40582;53.100;6.686;2023-02-21T00:42:58;9.40;99.90
54684;DHT22;40582;53.100;6.686;2023-02-21T00:45:43;9.40;99.90
54684;DHT22;40582;53.100;6.686;2023-02-21T00:48:28;9.50;99.90
54684;DHT22;40582;53.100;6.686;2023-02-21T00:51:12;9.40;99.90
54684;DHT22;40582;53.100;6.686;2023-02-21T00:53:56;9.40;99.90
54684;DHT22;40582;53.100;6.686;2023-02-21T00:56:41;9.50;99.90
54684;DHT22;40582;53.100;6.686;2023-02-21T00:59:25;9.50;99.90
54684;DHT22;40582;53.100;6.686;2023-02-21T01:02:10;9.40;99.90
54684;DHT22;40582;53.100;6.686;2023-02-21T01:04:54;9.40;99.90
54684;DHT22;40582;53.100;6.686;2023-02-21T01:07:38;9.30;99.90
54684;DHT22;40582;53.100;6.686;2023-02-21T01:10:22;9.30;99.90
54684;DHT22;40582;53.100;6.686;2023-02-21T01:13:07;9.30;99.90
54684;DHT22;40582;53.100;6.686;2023-02-21T01:15:51;9.30;99.90
54684;DHT22;40582;53.100;6.686;2023-02-21T01:18:36;9.40;99.90
54684;DHT22;40582;53.100;6.686;2023-02-21T01:21:20;9.30;99.90
54684;DHT22;40582;53.100;6.686;2023-02-21T01:24:06;9.40;99.90
54684;DHT22;40582;53.100;6.686;2023-02-21T01:26:50;9.40;99.90
54684;DHT22;40582;53.100;6.686;2023-02-21T01:29:35;9.40;99.90
54684;DHT22;40582;53.100;6.686;2023-02-21T01:32:19;9.40;99.90
54684;DHT22;40582;53.100;6.686;2023-02-21T01:35:03;9.40;99.90
54684;DHT22;40582;53.100;6.686;2023-02-21T01:37:48;9.40;99.90
54684;DHT22;40582;53.100;6.686;2023-02-21T01:40:32;9.40;99.90
54684;DHT22;40582;53.100;6.686;2023-02-21T01:43:22;9.40;99.90
54684;DHT22;40582;53.100;6.686;2023-02-21T01:46:14;9.40;99.90
54684;DHT22;40582;53.100;6.686;2023-02-21T01:49:02;9.40;99.90
54684;DHT22;40582;53.100;6.686;2023-02-21T01:51:48;9.40;99.90
54684;DHT22;40582;53.100;6.686;2023-02-21T01:54:37;9.40;99.90
54684;DHT22;40582;53.100;6.686;2023-02-21T01:57:23;9.40;99.90
54684;DHT22;40582;53.100;6.686;2023-02-21T02:00:10;9.50;99.90
54684;DHT22;40582;53.100;6.686;2023-02-21T02:02:59;9.50;99.90
54684;DHT22;40582;53.100;6.686;2023-02-21T02:05:56;9.50;99.90
54684;DHT22;40582;53.100;6.686;2023-02-21T02:08:41;9.50;99.90
54684;DHT22;40582;53.100;6.686;2023-02-21T02:15:10;9.50;99.90
54684;DHT22;40582;53.100;6.686;2023-02-21T02:18:01;9.50;99.90
54684;DHT22;40582;53.100;6.686;2023-02-21T02:41:04;9.50;99.90
54684;DHT22;40582;53.100;6.686;2023-02-21T02:43:34;9.50;99.90
54684;DHT22;40582;53.100;6.686;2023-02-21T02:46:08;9.50;99.90
54684;DHT22;40582;53.100;6.686;2023-02-21T02:48:41;9.50;99.90
54684;DHT22;40582;53.100;6.686;2023-02-21T02:51:10;9.50;99.90
54684;DHT22;40582;53.100;6.686;2023-02-21T02:53:37;9.50;99.90
54684;DHT22;40582;53.100;6.686;2023-02-21T02:56:12;9.50;99.90
54684;DHT22;40582;53.100;6.686;2023-02-21T02:58:55;9.50;99.90
54684;DHT22;40582;53.100;6.686;2023-02-21T03:15:35;9.50;99.90
54684;DHT22;40582;53.100;6.686;2023-02-21T03:18:10;9.50;99.90
54684;DHT22;40582;53.100;6.686;2023-02-21T03:20:37;9.50;99.90
54684;DHT22;40582;53.100;6.686;2023-02-21T03:23:04;9.50;99.90
54684;DHT22;40582;53.100;6.686;2023-02-21T03:25:31;9.50;99.90
54684;DHT22;40582;53.100;6.686;2023-02-21T03:27:59;9.50;99.90
54684;DHT22;40582;53.100;6.686;2023-02-21T03:30:27;9.50;99.90
54684;DHT22;40582;53.100;6.686;2023-02-21T03:32:54;9.50;99.90
54684;DHT22;40582;53.100;6.686;2023-02-21T03:35:20;9.50;99.90
54684;DHT22;40582;53.100;6.686;2023-02-21T03:37:49;9.50;99.90
54684;DHT22;40582;53.100;6.686;2023-02-21T03:40:28;9.50;99.90
54684;DHT22;40582;53.100;6.686;2023-02-21T03:42:55;9.50;99.90
54684;DHT22;40582;53.100;6.686;2023-02-21T03:45:22;9.50;99.90
54684;DHT22;40582;53.100;6.686;2023-02-21T03:47:48;9.40;99.90
54684;DHT22;40582;53.100;6.686;2023-02-21T03:50:13;9.50;99.90
54684;DHT22;40582;53.100;6.686;2023-02-21T03:52:39;9.40;99.90
54684;DHT22;40582;53.100;6.686;2023-02-21T03:55:06;9.40;99.90
54684;DHT22;40582;53.100;6.686;2023-02-21T03:57:33;9.40;99.90
54684;DHT22;40582;53.100;6.686;2023-02-21T03:59:58;9.50;99.90
54684;DHT22;40582;53.100;6.686;2023-02-21T04:02:24;9.40;99.90
54684;DHT22;40582;53.100;6.686;2023-02-21T04:04:50;9.40;99.90
54684;DHT22;40582;53.100;6.686;2023-02-21T04:07:17;9.40;99.90
54684;DHT22;40582;53.100;6.686;2023-02-21T04:09:43;9.40;99.90
54684;DHT22;40582;53.100;6.686;2023-02-21T04:12:09;9.40;99.90
54684;DHT22;40582;53.100;6.686;2023-02-21T04:14:35;9.40;99.90
54684;DHT22;40582;53.100;6.686;2023-02-21T04:17:01;9.40;99.90
54684;DHT22;40582;53.100;6.686;2023-02-21T04:19:26;9.40;99.90
54684;DHT22;40582;53.100;6.686;2023-02-21T04:21:52;9.40;99.90
54684;DHT22;40582;53.100;6.686;2023-02-21T04:24:18;9.40;99.90
54684;DHT22;40582;53.100;6.686;2023-02-21T04:26:44;9.40;99.90
54684;DHT22;40582;53.100;6.686;2023-02-21T04:29:10;9.40;99.90
54684;DHT22;40582;53.100;6.686;2023-02-21T04:31:36;9.40;99.90
54684;DHT22;40582;53.100;6.686;2023-02-21T04:34:01;9.40;99.90
54684;DHT22;40582;53.100;6.686;2023-02-21T04:36:27;9.40;99.90
54684;DHT22;40582;53.100;6.686;2023-02-21T04:38:53;9.40;99.90
54684;DHT22;40582;53.100;6.686;2023-02-21T04:41:19;9.40;99.90
54684;DHT22;40582;53.100;6.686;2023-02-21T04:43:45;9.40;99.90
54684;DHT22;40582;53.100;6.686;2023-02-21T04:46:16;9.40;99.90
54684;DHT22;40582;53.100;6.686;2023-02-21T04:48:47;9.40;99.90
54684;DHT22;40582;53.100;6.686;2023-02-21T04:51:15;9.40;99.90
54684;DHT22;40582;53.100;6.686;2023-02-21T04:53:42;9.40;99.90
54684;DHT22;40582;53.100;6.686;2023-02-21T04:56:08;9.40;99.90
54684;DHT22;40582;53.100;6.686;2023-02-21T04:58:35;9.40;99.90
54684;DHT22;40582;53.100;6.686;2023-02-21T05:01:01;9.40;99.90
54684;DHT22;40582;53.100;6.686;2023-02-21T05:03:26;9.40;99.90
54684;DHT22;40582;53.100;6.686;2023-02-21T05:05:52;9.40;99.90
54684;DHT22;40582;53.100;6.686;2023-02-21T05:08:18;9.40;99.90
54684;DHT22;40582;53.100;6.686;2023-02-21T05:10:43;9.40;99.90
54684;DHT22;40582;53.100;6.686;2023-02-21T05:13:11;9.30;99.90
54684;DHT22;40582;53.100;6.686;2023-02-21T05:15:37;9.40;99.90
54684;DHT22;40582;53.100;6.686;2023-02-21T05:18:03;9.30;99.90
54684;DHT22;40582;53.100;6.686;2023-02-21T05:20:28;9.40;99.90
54684;DHT22;40582;53.100;6.686;2023-02-21T05:22:54;9.30;99.90
54684;DHT22;40582;53.100;6.686;2023-02-21T05:25:21;9.30;99.90
54684;DHT22;40582;53.100;6.686;2023-02-21T05:27:48;9.40;99.90
54684;DHT22;40582;53.100;6.686;2023-02-21T05:30:17;9.30;99.90
54684;DHT22;40582;53.100;6.686;2023-02-21T05:32:43;9.30;99.90
54684;DHT22;40582;53.100;6.686;2023-02-21T05:35:09;9.30;99.90
54684;DHT22;40582;53.100;6.686;2023-02-21T05:37:35;9.30;99.90
54684;DHT22;40582;53.100;6.686;2023-02-21T05:40:02;9.30;99.90
54684;DHT22;40582;53.100;6.686;2023-02-21T05:42:29;9.30;99.90
54684;DHT22;40582;53.100;6.686;2023-02-21T05:44:55;9.30;99.90
54684;DHT22;40582;53.100;6.686;2023-02-21T05:47:21;9.30;99.90
54684;DHT22;40582;53.100;6.686;2023-02-21T05:49:47;9.30;99.90
54684;DHT22;40582;53.100;6.686;2023-02-21T05:52:14;9.30;99.90
54684;DHT22;40582;53.100;6.686;2023-02-21T05:54:40;9.30;99.90
54684;DHT22;40582;53.100;6.686;2023-02-21T05:57:06;9.30;99.90
54684;DHT22;40582;53.100;6.686;2023-02-21T05:59:31;9.30;99.90
54684;DHT22;40582;53.100;6.686;2023-02-21T06:01:57;9.30;99.90
54684;DHT22;40582;53.100;6.686;2023-02-21T06:04:23;9.30;99.90
54684;DHT22;40582;53.100;6.686;2023-02-21T06:06:49;9.30;99.90
54684;DHT22;40582;53.100;6.686;2023-02-21T06:09:15;9.30;99.90
54684;DHT22;40582;53.100;6.686;2023-02-21T06:11:41;9.30;99.90
54684;DHT22;40582;53.100;6.686;2023-02-21T06:14:19;9.30;99.90
54684;DHT22;40582;53.100;6.686;2023-02-21T06:16:45;9.30;99.90
54684;DHT22;40582;53.100;6.686;2023-02-21T06:19:12;9.30;99.90
54684;DHT22;40582;53.100;6.686;2023-02-21T06:21:38;9.20;99.90
54684;DHT22;40582;53.100;6.686;2023-02-21T06:24:05;9.30;99.90
54684;DHT22;40582;53.100;6.686;2023-02-21T06:26:31;9.30;99.90
54684;DHT22;40582;53.100;6.686;2023-02-21T06:28:57;9.20;99.90
54684;DHT22;40582;53.100;6.686;2023-02-21T06:31:23;9.20;99.90
54684;DHT22;40582;53.100;6.686;2023-02-21T06:33:49;9.20;99.90
54684;DHT22;40582;53.100;6.686;2023-02-21T06:36:20;9.20;99.90
54684;DHT22;40582;53.100;6.686;2023-02-21T06:38:49;9.30;99.90
54684;DHT22;40582;53.100;6.686;2023-02-21T06:41:24;9.20;99.90
54684;DHT22;40582;53.100;6.686;2023-02-21T06:43:51;9.20;99.90
54684;DHT22;40582;53.100;6.686;2023-02-21T06:46:24;9.20;99.90
54684;DHT22;40582;53.100;6.686;2023-02-21T06:48:50;9.20;99.90
54684;DHT22;40582;53.100;6.686;2023-02-21T06:51:16;9.20;99.90
54684;DHT22;40582;53.100;6.686;2023-02-21T06:53:43;9.20;99.90
54684;DHT22;40582;53.100;6.686;2023-02-21T06:56:09;9.20;99.90
54684;DHT22;40582;53.100;6.686;2023-02-21T06:58:35;9.20;99.90
54684;DHT22;40582;53.100;6.686;2023-02-21T07:01:02;9.20;99.90
54684;DHT22;40582;53.100;6.686;2023-02-21T07:03:28;9.20;99.90
54684;DHT22;40582;53.100;6.686;2023-02-21T07:05:54;9.20;99.90
54684;DHT22;40582;53.100;6.686;2023-02-21T07:08:19;9.20;99.90
54684;DHT22;40582;53.100;6.686;2023-02-21T07:10:46;9.30;99.90
54684;DHT22;40582;53.100;6.686;2023-02-21T07:13:12;9.20;99.90
54684;DHT22;40582;53.100;6.686;2023-02-21T07:15:38;9.20;99.90
54684;DHT22;40582;53.100;6.686;2023-02-21T07:18:03;9.30;99.90
54684;DHT22;40582;53.100;6.686;2023-02-21T07:20:29;9.30;99.90
54684;DHT22;40582;53.100;6.686;2023-02-21T07:22:57;9.30;99.90
54684;DHT22;40582;53.100;6.686;2023-02-21T07:25:23;9.30;99.90
54684;DHT22;40582;53.100;6.686;2023-02-21T07:27:49;9.30;99.90
54684;DHT22;40582;53.100;6.686;2023-02-21T07:30:17;9.30;99.90
54684;DHT22;40582;53.100;6.686;2023-02-21T07:32:43;9.30;99.90
54684;DHT22;40582;53.100;6.686;2023-02-21T07:35:09;9.30;99.90
54684;DHT22;40582;53.100;6.686;2023-02-21T07:37:35;9.30;99.90
54684;DHT22;40582;53.100;6.686;2023-02-21T07:40:00;9.30;99.90
54684;DHT22;40582;53.100;6.686;2023-02-21T07:42:26;9.30;99.90
54684;DHT22;40582;53.100;6.686;2023-02-21T07:44:55;9.40;99.90
54684;DHT22;40582;53.100;6.686;2023-02-21T07:47:22;9.40;99.90
54684;DHT22;40582;53.100;6.686;2023-02-21T07:49:48;9.40;99.90
54684;DHT22;40582;53.100;6.686;2023-02-21T07:52:14;9.40;99.90
54684;DHT22;40582;53.100;6.686;2023-02-21T07:54:40;9.50;99.90
54684;DHT22;40582;53.100;6.686;2023-02-21T07:57:05;9.50;99.90
54684;DHT22;40582;53.100;6.686;2023-02-21T07:59:32;9.50;99.90
54684;DHT22;40582;53.100;6.686;2023-02-21T08:01:58;9.60;99.90
54684;DHT22;40582;53.100;6.686;2023-02-21T08:04:23;9.60;99.90
54684;DHT22;40582;53.100;6.686;2023-02-21T08:06:50;9.70;99.90
54684;DHT22;40582;53.100;6.686;2023-02-21T08:09:17;9.70;99.90
54684;DHT22;40582;53.100;6.686;2023-02-21T08:11:43;9.80;99.90
54684;DHT22;40582;53.100;6.686;2023-02-21T08:14:08;9.80;99.90
54684;DHT22;40582;53.100;6.686;2023-02-21T08:16:34;9.80;99.90
54684;DHT22;40582;53.100;6.686;2023-02-21T08:19:00;9.80;99.90
54684;DHT22;40582;53.100;6.686;2023-02-21T08:21:25;9.80;99.90
54684;DHT22;40582;53.100;6.686;2023-02-21T08:23:52;9.90;99.90
54684;DHT22;40582;53.100;6.686;2023-02-21T08:26:19;9.90;99.90
54684;DHT22;40582;53.100;6.686;2023-02-21T08:28:44;9.90;99.90
54684;DHT22;40582;53.100;6.686;2023-02-21T08:31:10;9.90;99.90
54684;DHT22;40582;53.100;6.686;2023-02-21T08:33:36;9.90;99.90
54684;DHT22;40582;53.100;6.686;2023-02-21T08:36:02;9.90;99.90
54684;DHT22;40582;53.100;6.686;2023-02-21T08:38:28;9.90;99.90
54684;DHT22;40582;53.100;6.686;2023-02-21T08:40:53;10.00;99.90
54684;DHT22;40582;53.100;6.686;2023-02-21T08:43:19;10.00;99.90
54684;DHT22;40582;53.100;6.686;2023-02-21T08:45:45;10.00;99.90
54684;DHT22;40582;53.100;6.686;2023-02-21T08:48:10;10.00;99.90
54684;DHT22;40582;53.100;6.686;2023-02-21T08:50:36;10.00;99.90
54684;DHT22;40582;53.100;6.686;2023-02-21T08:53:02;10.00;99.90
54684;DHT22;40582;53.100;6.686;2023-02-21T08:55:28;10.00;99.90
54684;DHT22;40582;53.100;6.686;2023-02-21T08:57:54;10.00;99.90
54684;DHT22;40582;53.100;6.686;2023-02-21T09:00:21;10.00;99.90
54684;DHT22;40582;53.100;6.686;2023-02-21T09:02:51;10.00;99.90
54684;DHT22;40582;53.100;6.686;2023-02-21T09:05:25;10.10;99.90
54684;DHT22;40582;53.100;6.686;2023-02-21T09:07:52;10.20;99.90
54684;DHT22;40582;53.100;6.686;2023-02-21T09:10:24;10.20;99.90
54684;DHT22;40582;53.100;6.686;2023-02-21T09:12:50;10.30;99.90
54684;DHT22;40582;53.100;6.686;2023-02-21T09:15:16;10.30;99.90
54684;DHT22;40582;53.100;6.686;2023-02-21T09:17:42;10.30;99.90
54684;DHT22;40582;53.100;6.686;2023-02-21T09:20:09;10.30;99.90
54684;DHT22;40582;53.100;6.686;2023-02-21T09:22:35;10.30;99.90
54684;DHT22;40582;53.100;6.686;2023-02-21T09:25:02;10.30;99.90
54684;DHT22;40582;53.100;6.686;2023-02-21T09:27:29;10.30;99.90
54684;DHT22;40582;53.100;6.686;2023-02-21T09:30:15;10.30;99.90
54684;DHT22;40582;53.100;6.686;2023-02-21T09:32:41;10.40;99.90
54684;DHT22;40582;53.100;6.686;2023-02-21T09:35:08;10.40;99.90
54684;DHT22;40582;53.100;6.686;2023-02-21T09:37:39;10.40;99.90
54684;DHT22;40582;53.100;6.686;2023-02-21T09:40:55;10.50;99.90
54684;DHT22;40582;53.100;6.686;2023-02-21T09:43:01;10.60;99.90
54684;DHT22;40582;53.100;6.686;2023-02-21T09:45:31;10.60;99.90
54684;DHT22;40582;53.100;6.686;2023-02-21T09:48:01;10.60;99.90
54684;DHT22;40582;53.100;6.686;2023-02-21T09:50:33;10.70;99.90
54684;DHT22;40582;53.100;6.686;2023-02-21T09:53:00;10.80;99.90
54684;DHT22;40582;53.100;6.686;2023-02-21T09:55:35;10.80;99.90
54684;DHT22;40582;53.100;6.686;2023-02-21T09:58:02;10.80;99.90
54684;DHT22;40582;53.100;6.686;2023-02-21T10:00:37;10.80;99.90
54684;DHT22;40582;53.100;6.686;2023-02-21T10:05:44;10.70;99.90
54684;DHT22;40582;53.100;6.686;2023-02-21T10:08:29;10.80;99.90
54684;DHT22;40582;53.100;6.686;2023-02-21T10:11:28;10.80;99.90
54684;DHT22;40582;53.100;6.686;2023-02-21T10:16:41;10.70;99.90
54684;DHT22;40582;53.100;6.686;2023-02-21T10:22:00;10.80;99.90
54684;DHT22;40582;53.100;6.686;2023-02-21T10:24:27;10.80;99.90
54684;DHT22;40582;53.100;6.686;2023-02-21T10:27:01;10.80;99.90
54684;DHT22;40582;53.100;6.686;2023-02-21T10:32:22;11.00;99.90
54684;DHT22;40582;53.100;6.686;2023-02-21T10:34:51;11.00;99.90
54684;DHT22;40582;53.100;6.686;2023-02-21T10:42:41;10.90;99.90
54684;DHT22;40582;53.100;6.686;2023-02-21T10:45:08;10.90;99.90
54684;DHT22;40582;53.100;6.686;2023-02-21T10:47:57;10.90;99.90
54684;DHT22;40582;53.100;6.686;2023-02-21T10:53:23;11.00;99.90
54684;DHT22;40582;53.100;6.686;2023-02-21T10:59:05;11.00;99.90
54684;DHT22;40582;53.100;6.686;2023-02-21T11:01:44;11.00;99.90
54684;DHT22;40582;53.100;6.686;2023-02-21T11:06:47;11.00;99.90
54684;DHT22;40582;53.100;6.686;2023-02-21T11:12:05;10.90;99.90
54684;DHT22;40582;53.100;6.686;2023-02-21T11:14:33;11.00;99.90
54684;DHT22;40582;53.100;6.686;2023-02-21T11:19:42;11.00;99.90
54684;DHT22;40582;53.100;6.686;2023-02-21T11:22:08;11.00;99.90
54684;DHT22;40582;53.100;6.686;2023-02-21T11:24:48;11.10;99.90
54684;DHT22;40582;53.100;6.686;2023-02-21T11:27:15;11.10;99.90
54684;DHT22;40582;53.100;6.686;2023-02-21T11:29:43;11.10;99.90
54684;DHT22;40582;53.100;6.686;2023-02-21T11:32:21;11.20;99.90
54684;DHT22;40582;53.100;6.686;2023-02-21T11:34:48;11.20;99.90
54684;DHT22;40582;53.100;6.686;2023-02-21T11:37:15;11.10;99.90
54684;DHT22;40582;53.100;6.686;2023-02-21T11:39:41;11.10;99.90
54684;DHT22;40582;53.100;6.686;2023-02-21T11:42:24;11.10;99.90
54684;DHT22;40582;53.100;6.686;2023-02-21T11:47:52;11.10;99.90
54684;DHT22;40582;53.100;6.686;2023-02-21T11:50:28;11.10;99.90
54684;DHT22;40582;53.100;6.686;2023-02-21T11:53:05;11.10;99.90
54684;DHT22;40582;53.100;6.686;2023-02-21T11:55:31;11.10;99.90
54684;DHT22;40582;53.100;6.686;2023-02-21T11:58:42;11.10;99.90
54684;DHT22;40582;53.100;6.686;2023-02-21T12:01:14;11.20;99.90
54684;DHT22;40582;53.100;6.686;2023-02-21T12:06:56;11.20;99.90
54684;DHT22;40582;53.100;6.686;2023-02-21T12:09:51;11.20;99.90
54684;DHT22;40582;53.100;6.686;2023-02-21T12:12:40;11.20;99.90
54684;DHT22;40582;53.100;6.686;2023-02-21T12:15:30;11.20;99.90
54684;DHT22;40582;53.100;6.686;2023-02-21T12:18:18;11.20;99.90
54684;DHT22;40582;53.100;6.686;2023-02-21T12:26:25;11.40;99.90
54684;DHT22;40582;53.100;6.686;2023-02-21T12:45:53;11.60;99.90
54684;DHT22;40582;53.100;6.686;2023-02-21T12:48:32;11.60;99.90
54684;DHT22;40582;53.100;6.686;2023-02-21T12:51:07;11.60;99.90
54684;DHT22;40582;53.100;6.686;2023-02-21T12:56:20;11.60;99.90
54684;DHT22;40582;53.100;6.686;2023-02-21T12:58:53;11.60;99.90
54684;DHT22;40582;53.100;6.686;2023-02-21T13:01:27;11.60;99.90
54684;DHT22;40582;53.100;6.686;2023-02-21T13:04:10;11.60;99.90
54684;DHT22;40582;53.100;6.686;2023-02-21T13:14:37;11.50;99.90
54684;DHT22;40582;53.100;6.686;2023-02-21T13:17:03;11.50;99.90
54684;DHT22;40582;53.100;6.686;2023-02-21T13:19:48;11.40;99.90
54684;DHT22;40582;53.100;6.686;2023-02-21T13:28:21;11.50;99.90
54684;DHT22;40582;53.100;6.686;2023-02-21T13:30:52;11.50;99.90
54684;DHT22;40582;53.100;6.686;2023-02-21T13:36:32;11.40;99.90
54684;DHT22;40582;53.100;6.686;2023-02-21T13:41:36;11.30;99.90
54684;DHT22;40582;53.100;6.686;2023-02-21T13:44:12;11.30;99.90
54684;DHT22;40582;53.100;6.686;2023-02-21T13:57:44;11.30;99.90
54684;DHT22;40582;53.100;6.686;2023-02-21T14:10:57;11.10;99.90
54684;DHT22;40582;53.100;6.686;2023-02-21T14:13:34;11.10;99.90
54684;DHT22;40582;53.100;6.686;2023-02-21T14:16:08;11.10;99.90
54684;DHT22;40582;53.100;6.686;2023-02-21T14:18:39;11.00;99.90
54684;DHT22;40582;53.100;6.686;2023-02-21T14:24:01;10.90;99.90
54684;DHT22;40582;53.100;6.686;2023-02-21T14:37:34;10.90;99.90
54684;DHT22;40582;53.100;6.686;2023-02-21T15:03:14;10.80;99.90
54684;DHT22;40582;53.100;6.686;2023-02-21T15:06:01;10.80;99.90
54684;DHT22;40582;53.100;6.686;2023-02-21T15:08:28;10.70;99.90
54684;DHT22;40582;53.100;6.686;2023-02-21T15:10:57;10.70;99.90
54684;DHT22;40582;53.100;6.686;2023-02-21T15:13:27;10.70;99.90
54684;DHT22;40582;53.100;6.686;2023-02-21T15:15:57;10.70;99.90
54684;DHT22;40582;53.100;6.686;2023-02-21T15:18:35;10.60;99.90
54684;DHT22;40582;53.100;6.686;2023-02-21T15:23:35;10.60;99.90
54684;DHT22;40582;53.100;6.686;2023-02-21T15:26:22;10.60;99.90
54684;DHT22;40582;53.100;6.686;2023-02-21T15:29:12;10.60;99.90
54684;DHT22;40582;53.100;6.686;2023-02-21T15:34:16;10.50;99.90
54684;DHT22;40582;53.100;6.686;2023-02-21T15:36:44;10.50;99.90
54684;DHT22;40582;53.100;6.686;2023-02-21T15:39:35;10.50;99.90
54684;DHT22;40582;53.100;6.686;2023-02-21T15:42:05;10.40;99.90
54684;DHT22;40582;53.100;6.686;2023-02-21T15:44:39;10.40;99.90
54684;DHT22;40582;53.100;6.686;2023-02-21T15:47:14;10.40;99.90
54684;DHT22;40582;53.100;6.686;2023-02-21T15:49:44;10.40;99.90
54684;DHT22;40582;53.100;6.686;2023-02-21T15:52:35;10.40;99.90
54684;DHT22;40582;53.100;6.686;2023-02-21T15:58:02;10.40;99.90
54684;DHT22;40582;53.100;6.686;2023-02-21T16:00:29;10.40;99.90
54684;DHT22;40582;53.100;6.686;2023-02-21T16:03:28;10.40;99.90
54684;DHT22;40582;53.100;6.686;2023-02-21T16:06:43;10.30;99.90
54684;DHT22;40582;53.100;6.686;2023-02-21T16:09:06;10.30;99.90
54684;DHT22;40582;53.100;6.686;2023-02-21T16:16:50;10.20;99.90
54684;DHT22;40582;53.100;6.686;2023-02-21T16:19:23;10.20;99.90
54684;DHT22;40582;53.100;6.686;2023-02-21T16:21:48;10.20;99.90
54684;DHT22;40582;53.100;6.686;2023-02-21T16:24:31;10.20;99.90
54684;DHT22;40582;53.100;6.686;2023-02-21T16:27:16;10.20;99.90
54684;DHT22;40582;53.100;6.686;2023-02-21T16:29:42;10.10;99.90
54684;DHT22;40582;53.100;6.686;2023-02-21T16:32:19;10.10;99.90
54684;DHT22;40582;53.100;6.686;2023-02-21T16:34:45;10.10;99.90
54684;DHT22;40582;53.100;6.686;2023-02-21T16:37:13;10.10;99.90
54684;DHT22;40582;53.100;6.686;2023-02-21T16:39:39;10.10;99.90
54684;DHT22;40582;53.100;6.686;2023-02-21T16:42:06;10.10;99.90
54684;DHT22;40582;53.100;6.686;2023-02-21T16:44:32;10.00;99.90
54684;DHT22;40582;53.100;6.686;2023-02-21T16:46:58;10.00;99.90
54684;DHT22;40582;53.100;6.686;2023-02-21T16:49:23;10.00;99.90
54684;DHT22;40582;53.100;6.686;2023-02-21T16:51:49;10.00;99.90
54684;DHT22;40582;53.100;6.686;2023-02-21T16:54:15;10.00;99.90
54684;DHT22;40582;53.100;6.686;2023-02-21T16:56:44;10.00;99.90
54684;DHT22;40582;53.100;6.686;2023-02-21T16:59:13;9.90;99.90
54684;DHT22;40582;53.100;6.686;2023-02-21T17:01:40;9.90;99.90
54684;DHT22;40582;53.100;6.686;2023-02-21T17:04:21;9.90;99.90
54684;DHT22;40582;53.100;6.686;2023-02-21T17:06:52;9.90;99.90
54684;DHT22;40582;53.100;6.686;2023-02-21T17:09:21;9.90;99.90
54684;DHT22;40582;53.100;6.686;2023-02-21T17:11:47;9.90;99.90
54684;DHT22;40582;53.100;6.686;2023-02-21T17:14:13;9.80;99.90
54684;DHT22;40582;53.100;6.686;2023-02-21T17:16:38;9.80;99.90
54684;DHT22;40582;53.100;6.686;2023-02-21T17:19:04;9.80;99.90
54684;DHT22;40582;53.100;6.686;2023-02-21T17:21:31;9.80;99.90
54684;DHT22;40582;53.100;6.686;2023-02-21T17:23:57;9.80;99.90
54684;DHT22;40582;53.100;6.686;2023-02-21T17:26:24;9.80;99.90
54684;DHT22;40582;53.100;6.686;2023-02-21T17:28:50;9.80;99.90
54684;DHT22;40582;53.100;6.686;2023-02-21T17:31:16;9.80;99.90
54684;DHT22;40582;53.100;6.686;2023-02-21T17:33:43;9.80;99.90
54684;DHT22;40582;53.100;6.686;2023-02-21T17:36:16;9.80;99.90
54684;DHT22;40582;53.100;6.686;2023-02-21T17:38:41;9.80;99.90
54684;DHT22;40582;53.100;6.686;2023-02-21T17:41:07;9.80;99.90
54684;DHT22;40582;53.100;6.686;2023-02-21T17:43:33;9.80;99.90
54684;DHT22;40582;53.100;6.686;2023-02-21T17:45:59;9.80;99.90
54684;DHT22;40582;53.100;6.686;2023-02-21T17:48:25;9.80;99.90
54684;DHT22;40582;53.100;6.686;2023-02-21T17:50:50;9.80;99.90
54684;DHT22;40582;53.100;6.686;2023-02-21T17:53:16;9.80;99.90
54684;DHT22;40582;53.100;6.686;2023-02-21T17:55:41;9.80;99.90
54684;DHT22;40582;53.100;6.686;2023-02-21T17:58:07;9.80;99.90
54684;DHT22;40582;53.100;6.686;2023-02-21T18:00:34;9.80;99.90
54684;DHT22;40582;53.100;6.686;2023-02-21T18:03:00;9.80;99.90
54684;DHT22;40582;53.100;6.686;2023-02-21T18:05:29;9.80;99.90
54684;DHT22;40582;53.100;6.686;2023-02-21T18:07:56;9.80;99.90
54684;DHT22;40582;53.100;6.686;2023-02-21T18:10:23;9.80;99.90
54684;DHT22;40582;53.100;6.686;2023-02-21T18:12:50;9.80;99.90
54684;DHT22;40582;53.100;6.686;2023-02-21T18:15:16;9.80;99.90
54684;DHT22;40582;53.100;6.686;2023-02-21T18:17:42;9.80;99.90
54684;DHT22;40582;53.100;6.686;2023-02-21T18:20:09;9.80;99.90
54684;DHT22;40582;53.100;6.686;2023-02-21T18:22:35;9.80;99.90
54684;DHT22;40582;53.100;6.686;2023-02-21T18:25:02;9.80;99.90
54684;DHT22;40582;53.100;6.686;2023-02-21T18:27:27;9.80;99.90
54684;DHT22;40582;53.100;6.686;2023-02-21T18:29:53;9.80;99.90
54684;DHT22;40582;53.100;6.686;2023-02-21T18:32:23;9.80;99.90
54684;DHT22;40582;53.100;6.686;2023-02-21T18:34:49;9.80;99.90
54684;DHT22;40582;53.100;6.686;2023-02-21T18:37:15;9.80;99.90
54684;DHT22;40582;53.100;6.686;2023-02-21T18:39:41;9.80;99.90
54684;DHT22;40582;53.100;6.686;2023-02-21T18:42:07;9.70;99.90
54684;DHT22;40582;53.100;6.686;2023-02-21T18:44:33;9.80;99.90
54684;DHT22;40582;53.100;6.686;2023-02-21T18:46:58;9.80;99.90
54684;DHT22;40582;53.100;6.686;2023-02-21T18:49:26;9.70;99.90
54684;DHT22;40582;53.100;6.686;2023-02-21T18:51:52;9.70;99.90
54684;DHT22;40582;53.100;6.686;2023-02-21T18:54:19;9.70;99.90
54684;DHT22;40582;53.100;6.686;2023-02-21T18:56:49;9.70;99.90
54684;DHT22;40582;53.100;6.686;2023-02-21T18:59:17;9.70;99.90
54684;DHT22;40582;53.100;6.686;2023-02-21T19:01:50;9.70;99.90
54684;DHT22;40582;53.100;6.686;2023-02-21T19:04:16;9.70;99.90
54684;DHT22;40582;53.100;6.686;2023-02-21T19:06:41;9.70;99.90
54684;DHT22;40582;53.100;6.686;2023-02-21T19:09:07;9.70;99.90
54684;DHT22;40582;53.100;6.686;2023-02-21T19:11:33;9.60;99.90
54684;DHT22;40582;53.100;6.686;2023-02-21T19:13:59;9.70;99.90
54684;DHT22;40582;53.100;6.686;2023-02-21T19:16:24;9.70;99.90
54684;DHT22;40582;53.100;6.686;2023-02-21T19:18:55;9.60;99.90